AirNav   Everest Fuels
 
 1342 users online  

53XS Kornegay Private Airport
San Benito, Texas, USA

GOING TO SAN BENITO?


FAA INFORMATION EFFECTIVE 31 DECEMBER 2020

Location

FAA Identifier: 53XS
Lat/Long: 26-09-01.0000N 097-35-36.0000W
26-09.016667N 097-35.600000W
26.1502778,-97.5933333
(estimated)
Elevation: 30 ft. / 9 m (estimated)
Variation: 07E (1985)
From city: 3 miles NE of SAN BENITO, TX
Time zone: UTC -6 (UTC -5 during Daylight Saving Time)
Zip code: 78586

Airport Operations

Airport use: Private use. Permission required prior to landing
Activation date: 07/1978
Control tower: no
ARTCC: HOUSTON CENTER
FSS: SAN ANGELO FLIGHT SERVICE STATION
Attendance: 0700-1800
Wind indicator: yes
Segmented circle: no

Airport Communications

WX ASOS at HRL (6 nm NW): 124.85 (956-428-7297)
WX ASOS at PIL (13 nm E): 118.525 (956-233-5740)
WX ASOS at BRO (17 nm SE): 128.55 (956-546-4540)

Nearby radio navigation aids

VOR radial/distance  VOR name  Freq  Var
HRLr141/5.7HARLINGEN VOR/DME109.2005E
BROr310/18.0BROWNSVILLE VORTAC116.3009E
MAMr347/23.1MATAMOROS VOR/DME114.3004E
MFEr083/34.9MC ALLEN VOR/DME117.2009E
REXr068/35.4REYNOSA VOR/DME112.4008E

 
NDB name  Hdg/Dist  Freq  Var  ID
SEBAS155/9.933805EHR .... .-.
DEPOO333/11.039303EBR -... .-.

Airport Services

Fuel available: 100 JET-A

Runway Information

Runway 12/30

Dimensions: 2600 x 20 ft. / 792 x 6 m
Surface: asphalt
RUNWAY 12  RUNWAY 30
Traffic pattern: leftleft

Airport Ownership and Management from official FAA records

Ownership: Privately-owned
Owner: PATRICK C. KORNEGAY
28125 NORMA LINDA RD
SAN BENITO, TX 78586
Phone 956-399-5323
Manager: PATRICK C. KORNEGAY
28125 NORMA LINDA RD
SAN BENITO, TX 78586
Phone 956-399-5323

Airport Operational Statistics

Aircraft based on the field: 6
Single engine airplanes: 5
Multi engine airplanes: 1
    

Additional Remarks

FOR CD CTC HOUSTON ARTCC AT 281-230-5622.

Instrument Procedures

There are no published instrument procedures at 53XS.

Some nearby airports with instrument procedures:

KHRL - Valley International Airport (6 nm NW)
KPIL - Port Isabel-Cameron County Airport (13 nm E)
KBRO - Brownsville/South Padre Island International Airport (17 nm SE)
KTXW - Mid Valley Airport (21 nm W)
KEBG - South Texas International Airport at Edinburg (33 nm NW)
 
Loc | Ops | Rwys | IFR | FBO | Links
Com | Nav | Svcs | Stats | Notes
Area around 53XS (Kornegay Private Airport)
 
Road maps at: MapQuest Bing Google
 
Aerial photo
No photo
 
Sectional chart

 
Airport distance calculator
Flying to Kornegay Private Airport? Find the distance to fly.

From to 53XS

Sunrise and sunset
Times for 18-Jan-2021
 Local
(UTC-6)
 Zulu
(UTC)
Morning civil twilight06:5512:55
Sunrise07:2013:20
Sunset18:0200:02
Evening civil twilight18:2600:26

Current date and time
Zulu (UTC)  18-Jan-2021 15:56:30
Local (UTC-6)  18-Jan-2021 09:56:30
 
METAR
KHRL 
6nm NW 
181538Z 18009KT 5SM BR OVC002 18/18 A3007 RMK AO2 T01780178
KPIL 
14nm E 
181531Z AUTO 17006KT 10SM SCT002 18/18 A3008 RMK AO2 T01830178 TSNO
KBRO 
17nm SE 
181535Z 16006KT 10SM BKN003 19/18 A3008 RMK AO2 T01890178
TAF
KHRL 
6nm NW 
181316Z 1813/1912 15004KT 1/4SM FG VV003 FM181600 VRB04KT P6SM BKN004 FM181800 17012KT P6SM SCT070 FM190000 16017G26KT P6SM BKN060 FM190600 16014G22KT P6SM OVC030 FM191000 16012KT P6SM BKN040
KBRO 
17nm SE 
181336Z 1814/1912 00000KT 3/4SM BR VV002 TEMPO 1814/1816 1/4SM FG FM181600 17008KT P6SM BKN045 FM181900 17015KT P6SM BKN060 FM182300 16017KT P6SM BKN027 FM190400 16013G22KT P6SM BKN035
NOTAMs
Click for the latest NOTAMs
NOTAMs are issued by the DoD/FAA and will open in a separate window not controlled by AirNav.

 

 
 

Would you like to see your business listed on this page?

 If your business provides an interesting product or service to pilots, flight crews, aircraft, or users of the Kornegay Private Airport, you should consider listing it here.  To start the listing process, click on the button below
 
Add a business
 

Other Pages about Kornegay Private Airport

Update a link
 
Copyright © AirNav, LLC. All rights reserved. Privacy Policy  Contact